Time;durP1;ratioP1;P1;durP2;ratioP2;P2;SDS_P1;SDS_P2;PMS_P1;PMS_P2;Temp;Humidity;BMP_temperature;BMP_pressure;BME280_temperature;BME280_humidity;BME280_pressure;Samples;Min_cycle;Max_cycle;Signal;HPM_P1;HPM_P2
2021/08/13 00:01:21;;;;;;;4.97;4.47;;;25.20;50.60;;;;;;5071291;28;20664;-57
2021/08/13 00:03:47;;;;;;;5.53;5.03;;;25.20;50.60;;;;;;5071388;28;20661;-57
2021/08/13 00:06:14;;;;;;;5.95;4.85;;;25.20;50.60;;;;;;5070659;28;20604;-57
2021/08/13 00:08:40;;;;;;;5.20;4.72;;;25.20;50.60;;;;;;5071271;28;20278;-57
2021/08/13 00:11:07;;;;;;;5.03;4.63;;;25.20;50.60;;;;;;5071875;28;20202;-57
2021/08/13 00:13:33;;;;;;;5.07;4.57;;;25.20;50.60;;;;;;5070452;28;20205;-56
2021/08/13 00:16:00;;;;;;;5.10;4.70;;;25.20;50.60;;;;;;5070793;28;20229;-57
2021/08/13 00:18:26;;;;;;;4.95;4.55;;;25.20;50.60;;;;;;5070938;28;20201;-57
2021/08/13 00:20:52;;;;;;;4.70;4.30;;;25.20;50.60;;;;;;5072114;28;20219;-57
2021/08/13 00:23:19;;;;;;;5.00;4.60;;;25.20;50.60;;;;;;5069247;28;20205;-57
2021/08/13 00:25:45;;;;;;;5.43;4.93;;;25.20;50.60;;;;;;5069915;28;22192;-57
2021/08/13 00:28:12;;;;;;;4.82;4.43;;;25.20;51.20;;;;;;5071804;28;20769;-57
2021/08/13 00:30:38;;;;;;;4.95;4.55;;;25.20;50.70;;;;;;5071002;28;20545;-57
2021/08/13 00:33:05;;;;;;;4.60;4.20;;;25.20;50.60;;;;;;5070827;28;20584;-57
2021/08/13 00:35:31;;;;;;;5.03;4.28;;;25.20;50.60;;;;;;5071208;28;20580;-57
2021/08/13 00:37:58;;;;;;;5.07;4.68;;;25.20;50.60;;;;;;5069897;28;20201;-57
2021/08/13 00:40:24;;;;;;;5.28;4.80;;;25.20;50.50;;;;;;5069888;28;20280;-56
2021/08/13 00:42:51;;;;;;;4.93;4.53;;;25.20;50.60;;;;;;5070924;28;20205;-57
2021/08/13 00:45:18;;;;;;;4.82;4.30;;;25.20;50.60;;;;;;5071480;28;20231;-57
2021/08/13 00:47:44;;;;;;;5.07;4.57;;;25.20;50.60;;;;;;5069046;28;20272;-58
2021/08/13 00:50:11;;;;;;;5.03;4.63;;;25.20;50.50;;;;;;5070050;28;20205;-57
2021/08/13 00:52:38;;;;;;;4.53;4.13;;;25.20;50.50;;;;;;5071398;28;20207;-57
2021/08/13 00:55:04;;;;;;;4.82;4.40;;;25.20;50.60;;;;;;5070195;28;20221;-57
2021/08/13 00:57:31;;;;;;;4.53;4.13;;;25.20;50.60;;;;;;5069804;28;20199;-56
2021/08/13 00:59:57;;;;;;;4.53;4.13;;;25.20;50.50;;;;;;5069947;28;20201;-57
2021/08/13 01:02:24;;;;;;;4.88;4.40;;;25.20;50.60;;;;;;5071581;28;20228;-57
2021/08/13 01:04:50;;;;;;;4.72;4.32;;;25.20;50.60;;;;;;5069727;28;20216;-57
2021/08/13 01:07:16;;;;;;;4.53;4.13;;;25.20;50.60;;;;;;5069305;28;20232;-57
2021/08/13 01:09:43;;;;;;;4.55;4.15;;;25.20;50.60;;;;;;5070448;28;20197;-56
2021/08/13 01:12:10;;;;;;;5.07;4.68;;;25.20;50.60;;;;;;5068273;28;20209;-57
2021/08/13 01:14:36;;;;;;;4.38;3.97;;;25.20;50.60;;;;;;5068593;28;20657;-58
2021/08/13 01:17:03;;;;;;;5.10;4.70;;;25.20;50.60;;;;;;5069127;28;20211;-57
2021/08/13 01:19:29;;;;;;;4.50;4.20;;;25.20;50.60;;;;;;5070247;28;20733;-57
2021/08/13 01:21:55;;;;;;;5.10;4.60;;;25.20;50.60;;;;;;5068463;28;20688;-57
2021/08/13 01:24:22;;;;;;;5.40;4.90;;;25.10;50.50;;;;;;5069412;28;20213;-57
2021/08/13 01:26:48;;;;;;;5.13;4.63;;;25.20;50.50;;;;;;5068108;28;20235;-57
2021/08/13 01:29:17;;;;;;;4.63;4.22;;;25.20;50.60;;;;;;5070075;28;20206;-57
2021/08/13 01:31:44;;;;;;;4.95;4.55;;;25.20;50.60;;;;;;5069365;28;20205;-57
2021/08/13 01:34:12;;;;;;;5.30;4.80;;;25.20;50.60;;;;;;5063651;28;20197;-56
2021/08/13 01:36:39;;;;;;;4.55;4.20;;;25.20;50.60;;;;;;5068120;28;20223;-57
2021/08/13 01:39:05;;;;;;;4.70;4.30;;;25.20;50.60;;;;;;5070017;28;20205;-57
2021/08/13 01:41:31;;;;;;;4.50;4.10;;;25.20;50.60;;;;;;5068921;28;20201;-57
2021/08/13 01:43:58;;;;;;;4.45;4.05;;;25.20;50.60;;;;;;5069638;28;20197;-57
2021/08/13 01:46:24;;;;;;;4.88;4.45;;;25.10;50.50;;;;;;5068353;28;20235;-57
2021/08/13 01:48:51;;;;;;;4.70;4.30;;;25.20;50.60;;;;;;5069880;28;20201;-57
2021/08/13 01:51:18;;;;;;;4.93;4.50;;;25.20;50.60;;;;;;5070502;28;20192;-57
2021/08/13 01:53:45;;;;;;;4.85;4.45;;;25.20;50.60;;;;;;5069857;28;20554;-57
2021/08/13 01:56:11;;;;;;;4.43;4.13;;;25.10;50.50;;;;;;5067576;28;20596;-57
2021/08/13 01:58:37;;;;;;;4.57;4.18;;;25.10;50.50;;;;;;5069845;28;20201;-57
2021/08/13 02:01:04;;;;;;;4.55;4.15;;;25.10;50.50;;;;;;5069587;28;20234;-57
2021/08/13 02:03:30;;;;;;;4.38;4.07;;;25.10;50.50;;;;;;5069371;28;20201;-57
2021/08/13 02:05:57;;;;;;;4.90;4.50;;;25.10;50.50;;;;;;5068729;28;20251;-57
2021/08/13 02:08:23;;;;;;;4.60;4.20;;;25.20;50.60;;;;;;5070467;28;20539;-57
2021/08/13 02:10:51;;;;;;;4.75;4.35;;;25.10;50.50;;;;;;5069254;28;20561;-57
2021/08/13 02:13:18;;;;;;;4.63;4.22;;;25.20;50.60;;;;;;5068963;28;20201;-57
2021/08/13 02:15:44;;;;;;;4.90;4.47;;;25.20;50.60;;;;;;5068495;28;20239;-57
2021/08/13 02:18:11;;;;;;;4.63;4.22;;;25.20;50.60;;;;;;5070325;28;20217;-57
2021/08/13 02:20:37;;;;;;;4.60;4.20;;;25.10;50.50;;;;;;5067361;28;20205;-57
2021/08/13 02:23:04;;;;;;;4.80;4.40;;;25.10;50.50;;;;;;5071909;28;20208;-57
2021/08/13 02:25:30;;;;;;;4.65;4.25;;;25.20;51.30;;;;;;5073119;28;20232;-56
2021/08/13 02:27:56;;;;;;;5.93;4.60;;;25.20;50.60;;;;;;5073960;28;20243;-57
2021/08/13 02:30:23;;;;;;;3.92;3.63;;;25.10;50.50;;;;;;5073387;28;20204;-57
2021/08/13 02:32:49;;;;;;;4.80;4.40;;;25.10;50.50;;;;;;5072560;28;20255;-57
2021/08/13 02:35:16;;;;;;;4.97;4.38;;;25.20;51.30;;;;;;5074241;28;20221;-57
2021/08/13 02:37:42;;;;;;;4.97;4.45;;;25.10;50.50;;;;;;5072878;28;20288;-57
2021/08/13 02:40:09;;;;;;;4.55;4.15;;;25.10;50.50;;;;;;5072940;28;20201;-57
2021/08/13 02:42:35;;;;;;;4.65;4.25;;;25.10;50.50;;;;;;5073361;28;20201;-57
2021/08/13 02:45:02;;;;;;;5.10;4.70;;;25.10;50.50;;;;;;5072316;28;20221;-58
2021/08/13 02:47:29;;;;;;;4.30;3.90;;;25.10;50.50;;;;;;5073430;28;20322;-57
2021/08/13 02:49:55;;;;;;;4.72;4.32;;;25.20;50.60;;;;;;5072512;28;20204;-57
2021/08/13 02:52:22;;;;;;;4.20;3.80;;;25.10;50.50;;;;;;5067868;28;20205;-57
2021/08/13 02:54:48;;;;;;;4.00;3.70;;;25.10;50.50;;;;;;5072505;28;20216;-57
2021/08/13 02:57:14;;;;;;;4.40;4.00;;;25.10;50.50;;;;;;5071409;28;20201;-57
2021/08/13 02:59:41;;;;;;;4.57;4.18;;;25.10;50.50;;;;;;5073444;28;20205;-57
2021/08/13 03:02:07;;;;;;;4.65;4.25;;;25.10;50.50;;;;;;5072905;28;20228;-57
2021/08/13 03:04:34;;;;;;;4.30;3.90;;;25.10;50.50;;;;;;5072417;28;20227;-57
2021/08/13 03:07:00;;;;;;;4.40;4.00;;;25.10;51.20;;;;;;5073269;28;20231;-57
2021/08/13 03:09:27;;;;;;;4.18;3.78;;;25.10;50.50;;;;;;5072507;28;20205;-57
2021/08/13 03:11:53;;;;;;;4.57;4.18;;;25.10;50.50;;;;;;5072410;28;20292;-57
2021/08/13 03:14:19;;;;;;;3.85;3.55;;;25.10;50.50;;;;;;5070889;28;20201;-57
2021/08/13 03:16:48;;;;;;;4.20;3.90;;;25.10;51.20;;;;;;5067220;28;20244;-57
2021/08/13 03:19:15;;;;;;;4.53;4.13;;;25.10;50.60;;;;;;5069896;28;20280;-57
2021/08/13 03:21:41;;;;;;;4.13;3.83;;;25.10;50.50;;;;;;5072355;28;20196;-57
2021/08/13 03:24:08;;;;;;;4.50;4.10;;;25.20;50.60;;;;;;5071052;28;20329;-57
2021/08/13 03:26:34;;;;;;;3.95;3.65;;;25.10;50.50;;;;;;5071447;28;20248;-57
2021/08/13 03:29:00;;;;;;;4.68;4.13;;;25.10;50.50;;;;;;5072904;28;20190;-57
2021/08/13 03:31:27;;;;;;;4.35;4.03;;;25.10;50.50;;;;;;5071681;28;20201;-57
2021/08/13 03:33:53;;;;;;;4.53;4.13;;;25.10;50.50;;;;;;5071401;28;20201;-57
2021/08/13 03:36:20;;;;;;;4.53;4.10;;;25.10;50.60;;;;;;5072728;28;20227;-57
2021/08/13 03:38:46;;;;;;;4.63;4.22;;;25.10;50.50;;;;;;5071846;28;20207;-57
2021/08/13 03:41:13;;;;;;;4.28;3.90;;;25.10;50.50;;;;;;5071817;28;20327;-56
2021/08/13 03:43:39;;;;;;;4.18;3.88;;;25.10;50.60;;;;;;5072058;28;20233;-57
2021/08/13 03:46:06;;;;;;;4.28;3.88;;;25.10;50.50;;;;;;5070771;28;20806;-58
2021/08/13 03:48:32;;;;;;;4.32;3.92;;;25.10;50.50;;;;;;5070151;28;20641;-57
2021/08/13 03:50:59;;;;;;;4.35;3.95;;;25.10;50.50;;;;;;5071567;28;20669;-57
2021/08/13 03:53:25;;;;;;;4.47;4.07;;;25.10;50.50;;;;;;5073037;28;20628;-57
2021/08/13 03:55:51;;;;;;;4.30;3.85;;;25.10;50.60;;;;;;5070666;28;20723;-57
2021/08/13 03:58:18;;;;;;;4.22;3.92;;;25.10;50.70;;;;;;5071862;28;20251;-57
2021/08/13 04:00:44;;;;;;;4.13;3.78;;;25.10;50.70;;;;;;5072269;28;20211;-57
2021/08/13 04:03:11;;;;;;;4.07;3.65;;;25.10;50.80;;;;;;5070741;28;20201;-57
2021/08/13 04:05:37;;;;;;;4.25;3.92;;;25.10;50.80;;;;;;5069840;28;20316;-57
2021/08/13 04:08:04;;;;;;;4.25;3.90;;;25.10;50.70;;;;;;5071491;28;20229;-57
2021/08/13 04:10:30;;;;;;;4.13;3.83;;;25.10;50.80;;;;;;5072468;28;20201;-57
2021/08/13 04:12:57;;;;;;;4.20;3.67;;;25.10;50.70;;;;;;5070725;28;20197;-57
2021/08/13 04:15:23;;;;;;;4.13;3.83;;;25.10;50.70;;;;;;5070712;28;20228;-57
2021/08/13 04:17:50;;;;;;;3.85;3.55;;;25.10;50.70;;;;;;5071788;28;20219;-57
2021/08/13 04:20:17;;;;;;;4.25;3.92;;;25.10;50.70;;;;;;5071305;28;20205;-57
2021/08/13 04:22:43;;;;;;;4.63;4.22;;;25.10;50.70;;;;;;5071146;28;20193;-57
2021/08/13 04:25:10;;;;;;;3.92;3.63;;;25.10;50.70;;;;;;5069248;28;20233;-57
2021/08/13 04:27:36;;;;;;;4.32;4.03;;;25.10;50.70;;;;;;5070939;28;20221;-57
2021/08/13 04:30:03;;;;;;;4.40;4.00;;;25.10;50.60;;;;;;5071213;28;20200;-58
2021/08/13 04:32:29;;;;;;;3.85;3.55;;;25.10;50.60;;;;;;5072019;28;20209;-57
2021/08/13 04:34:56;;;;;;;3.92;3.63;;;25.10;50.80;;;;;;5069559;28;20232;-58
2021/08/13 04:37:22;;;;;;;4.22;3.35;;;25.10;50.80;;;;;;5068448;28;20207;-57
2021/08/13 04:39:48;;;;;;;4.15;3.65;;;25.10;50.90;;;;;;5071363;28;20203;-57
2021/08/13 04:42:15;;;;;;;3.90;3.47;;;25.20;51.00;;;;;;5070198;28;20201;-57
2021/08/13 04:44:41;;;;;;;3.85;3.45;;;25.10;50.90;;;;;;5071169;28;20221;-57
2021/08/13 04:47:08;;;;;;;3.80;3.50;;;25.10;51.00;;;;;;5069367;28;20235;-57
2021/08/13 04:49:34;;;;;;;4.03;3.70;;;25.10;51.00;;;;;;5071700;28;20204;-57
2021/08/13 04:52:01;;;;;;;4.20;3.83;;;25.20;51.10;;;;;;5069995;28;20207;-58
2021/08/13 04:54:27;;;;;;;4.03;3.63;;;25.10;51.10;;;;;;5070268;28;20217;-57
2021/08/13 04:56:54;;;;;;;3.63;3.33;;;25.10;51.10;;;;;;5068329;28;20197;-57
2021/08/13 04:59:20;;;;;;;4.10;3.80;;;25.10;51.10;;;;;;5070270;28;20207;-57
2021/08/13 05:01:47;;;;;;;3.78;3.38;;;25.20;51.20;;;;;;5070947;28;20212;-57
2021/08/13 05:04:13;;;;;;;3.95;3.65;;;25.10;51.10;;;;;;5071371;28;20312;-57
2021/08/13 05:06:40;;;;;;;3.65;3.35;;;25.10;51.10;;;;;;5069739;28;20196;-57
2021/08/13 05:09:06;;;;;;;3.97;3.67;;;25.10;51.20;;;;;;5069963;28;20197;-58
2021/08/13 05:11:33;;;;;;;4.05;3.47;;;25.10;51.30;;;;;;5071157;28;20197;-58
2021/08/13 05:13:59;;;;;;;3.78;3.47;;;25.10;51.20;;;;;;5070158;28;20204;-57
2021/08/13 05:16:25;;;;;;;4.18;3.35;;;25.20;52.00;;;;;;5069853;28;20319;-57
2021/08/13 05:18:52;;;;;;;3.72;3.42;;;25.10;51.20;;;;;;5068142;28;20201;-57
2021/08/13 05:21:18;;;;;;;3.58;3.28;;;25.10;51.20;;;;;;5069888;28;20213;-57
2021/08/13 05:23:45;;;;;;;3.85;3.30;;;25.20;51.40;;;;;;5070332;28;20288;-57
2021/08/13 05:26:11;;;;;;;3.75;3.38;;;25.20;51.30;;;;;;5066568;28;20285;-57
2021/08/13 05:28:38;;;;;;;3.58;3.28;;;25.20;51.40;;;;;;5069545;28;20243;-57
2021/08/13 05:31:04;;;;;;;3.53;3.22;;;25.20;51.30;;;;;;5069323;28;20286;-57
2021/08/13 05:33:30;;;;;;;3.75;3.45;;;25.20;51.30;;;;;;5071007;28;20201;-57
2021/08/13 05:35:57;;;;;;;3.67;3.38;;;25.20;51.30;;;;;;5068317;28;20217;-57
2021/08/13 05:38:23;;;;;;;3.60;3.30;;;25.10;51.20;;;;;;5070142;28;20606;-57
2021/08/13 05:40:50;;;;;;;3.72;3.42;;;25.20;51.40;;;;;;5069710;28;20661;-57
2021/08/13 05:43:16;;;;;;;4.43;3.70;;;25.10;51.30;;;;;;5070478;28;20662;-57
2021/08/13 05:45:43;;;;;;;4.10;3.70;;;25.20;51.30;;;;;;5068612;28;20574;-57
2021/08/13 05:48:09;;;;;;;3.55;3.25;;;25.20;51.30;;;;;;5066452;28;20604;-57
2021/08/13 05:50:36;;;;;;;4.05;3.70;;;25.10;51.30;;;;;;5068717;28;20308;-58
2021/08/13 05:53:02;;;;;;;3.70;3.40;;;25.10;51.20;;;;;;5067006;28;20205;-57
2021/08/13 05:55:28;;;;;;;3.80;3.50;;;25.10;51.30;;;;;;5069133;28;20300;-57
2021/08/13 05:57:55;;;;;;;3.85;3.45;;;25.10;51.20;;;;;;5069862;28;20803;-57
2021/08/13 06:00:21;;;;;;;4.35;3.63;;;25.10;51.30;;;;;;5070805;28;20746;-57
2021/08/13 06:02:48;;;;;;;3.47;3.17;;;25.20;51.40;;;;;;5068670;28;20661;-57
2021/08/13 06:05:14;;;;;;;3.35;3.15;;;25.20;51.30;;;;;;5068108;28;20695;-57
2021/08/13 06:07:41;;;;;;;3.83;3.53;;;25.20;51.30;;;;;;5069249;28;20718;-57
2021/08/13 06:10:07;;;;;;;3.83;3.53;;;25.20;51.50;;;;;;5070096;28;20205;-57
2021/08/13 06:12:34;;;;;;;3.70;3.40;;;25.10;51.40;;;;;;5063813;28;20204;-57
2021/08/13 06:15:00;;;;;;;3.60;3.30;;;25.20;51.50;;;;;;5068954;28;20225;-57
2021/08/13 06:17:26;;;;;;;3.53;3.22;;;25.10;51.50;;;;;;5070067;28;20201;-57
2021/08/13 06:19:53;;;;;;;3.70;3.40;;;25.10;51.40;;;;;;5069680;28;20227;-57
2021/08/13 06:22:19;;;;;;;3.80;3.50;;;25.20;51.60;;;;;;5068329;28;20201;-57
2021/08/13 06:24:46;;;;;;;3.50;3.20;;;25.10;51.60;;;;;;5069778;28;20221;-57
2021/08/13 06:27:12;;;;;;;4.50;3.22;;;25.10;51.50;;;;;;5066801;28;20201;-57
2021/08/13 06:29:39;;;;;;;4.40;3.47;;;25.10;51.50;;;;;;5068799;28;20224;-58
2021/08/13 06:32:05;;;;;;;3.50;3.20;;;25.10;51.60;;;;;;5069216;28;20200;-57
2021/08/13 06:34:31;;;;;;;3.63;3.33;;;25.10;51.50;;;;;;5069769;28;20232;-57
2021/08/13 06:36:58;;;;;;;4.00;3.63;;;25.20;51.60;;;;;;5068594;28;20201;-57
2021/08/13 06:39:24;;;;;;;3.50;3.20;;;25.20;51.60;;;;;;5070572;28;20205;-57
2021/08/13 06:41:51;;;;;;;3.92;3.53;;;25.10;51.50;;;;;;5069060;28;20209;-57
2021/08/13 06:44:17;;;;;;;3.80;3.50;;;25.20;51.50;;;;;;5067097;28;20221;-57
2021/08/13 06:46:44;;;;;;;4.07;3.70;;;25.10;51.50;;;;;;5066443;28;20205;-57
2021/08/13 06:49:10;;;;;;;3.80;3.50;;;25.20;51.40;;;;;;5070382;28;20232;-57
2021/08/13 06:51:37;;;;;;;3.65;3.35;;;25.20;51.40;;;;;;5069485;28;20288;-59
2021/08/13 06:54:03;;;;;;;4.13;3.75;;;25.20;51.30;;;;;;5061874;28;20236;-55
2021/08/13 06:56:29;;;;;;;3.80;3.50;;;25.20;51.60;;;;;;5071863;28;20214;-57
2021/08/13 06:58:56;;;;;;;7.18;4.00;;;25.20;51.60;;;;;;5076143;28;20209;-57
2021/08/13 07:01:23;;;;;;;4.38;3.55;;;25.30;51.70;;;;;;5068425;28;20197;-50
2021/08/13 07:03:49;;;;;;;3.97;3.20;;;25.30;51.70;;;;;;5067949;28;20227;-56
2021/08/13 07:06:15;;;;;;;3.45;3.10;;;25.30;51.90;;;;;;5068799;28;20291;-53
2021/08/13 07:08:42;;;;;;;4.22;3.25;;;25.30;51.50;;;;;;5072936;28;20333;-57
2021/08/13 07:11:08;;;;;;;6.85;3.97;;;25.30;52.30;;;;;;5062397;28;20209;-58
2021/08/13 07:13:35;;;;;;;6.38;4.53;;;25.20;49.20;;;;;;5067692;28;20314;-56
2021/08/13 07:16:01;;;;;;;6.22;4.78;;;24.90;50.60;;;;;;5065007;28;20206;-58
2021/08/13 07:18:28;;;;;;;6.50;4.38;;;25.00;51.10;;;;;;5070138;28;20288;-58
2021/08/13 07:20:54;;;;;;;6.03;4.10;;;25.20;51.10;;;;;;5070117;28;20203;-59
2021/08/13 07:23:21;;;;;;;4.60;3.92;;;25.20;51.00;;;;;;5073206;28;20209;-59
2021/08/13 07:25:47;;;;;;;5.22;4.40;;;25.30;51.00;;;;;;5070400;28;20215;-59
2021/08/13 07:28:13;;;;;;;4.00;3.60;;;25.30;51.70;;;;;;5072501;28;20248;-59
2021/08/13 07:30:40;;;;;;;4.57;3.50;;;25.30;51.20;;;;;;5069470;28;20208;-59
2021/08/13 07:33:06;;;;;;;4.63;3.33;;;25.30;51.20;;;;;;5071667;28;20212;-59
2021/08/13 07:35:33;;;;;;;3.83;3.45;;;25.40;51.30;;;;;;5074810;28;20216;-59
2021/08/13 07:37:59;;;;;;;4.22;3.53;;;25.40;51.30;;;;;;5081733;28;20300;-59
2021/08/13 07:40:26;;;;;;;3.75;3.25;;;25.40;51.30;;;;;;5070858;28;20696;-59
2021/08/13 07:42:54;;;;;;;4.22;3.60;;;25.40;51.40;;;;;;5080727;28;20683;-59
2021/08/13 07:45:21;;;;;;;3.30;2.95;;;25.40;51.30;;;;;;5071249;28;20304;-59
2021/08/13 07:47:47;;;;;;;3.63;3.33;;;25.40;51.40;;;;;;5069326;28;20312;-58
2021/08/13 07:50:14;;;;;;;4.00;3.55;;;25.40;51.40;;;;;;5068805;28;20197;-58
2021/08/13 07:52:40;;;;;;;3.92;3.10;;;25.40;51.60;;;;;;5068054;28;20197;-59
2021/08/13 07:55:06;;;;;;;3.63;2.92;;;25.50;51.60;;;;;;5071258;28;20217;-60
2021/08/13 07:57:33;;;;;;;4.07;3.63;;;25.50;51.60;;;;;;5071341;28;20223;-63
2021/08/13 07:59:59;;;;;;;3.40;3.03;;;25.50;51.60;;;;;;5070261;28;20202;-61
2021/08/13 08:02:26;;;;;;;3.80;3.35;;;25.50;52.10;;;;;;5071197;28;20201;-61
2021/08/13 08:04:52;;;;;;;5.35;3.33;;;25.60;51.80;;;;;;5065774;28;20232;-58
2021/08/13 08:07:19;;;;;;;3.53;3.20;;;25.60;51.90;;;;;;5061676;28;20256;-58
2021/08/13 08:09:45;;;;;;;4.15;3.45;;;25.50;52.00;;;;;;5056737;28;20233;-58
2021/08/13 08:12:12;;;;;;;3.88;3.45;;;25.50;51.90;;;;;;5067190;28;20216;-59
2021/08/13 08:14:38;;;;;;;3.58;2.90;;;25.50;52.10;;;;;;5060709;28;20228;-58
2021/08/13 08:17:05;;;;;;;4.20;3.45;;;25.50;52.00;;;;;;5088827;28;20375;-58
2021/08/13 08:19:31;;;;;;;3.50;3.20;;;25.50;51.90;;;;;;5068894;28;20206;-58
2021/08/13 08:21:58;;;;;;;3.95;3.03;;;25.50;52.00;;;;;;5068597;28;20208;-58
2021/08/13 08:24:24;;;;;;;4.40;3.10;;;25.50;51.80;;;;;;5072375;28;20231;-58
2021/08/13 08:26:50;;;;;;;4.13;3.15;;;25.50;51.80;;;;;;5070576;28;20201;-58
2021/08/13 08:29:17;;;;;;;3.38;3.13;;;25.50;51.90;;;;;;5070472;28;20229;-58
2021/08/13 08:31:43;;;;;;;4.28;3.45;;;25.50;51.80;;;;;;5070552;28;20217;-58
2021/08/13 08:34:10;;;;;;;3.08;2.75;;;25.50;51.80;;;;;;5081678;28;20227;-58
2021/08/13 08:36:36;;;;;;;6.35;3.30;;;25.50;51.80;;;;;;5071301;28;20976;-58
2021/08/13 08:39:03;;;;;;;3.35;2.97;;;25.50;51.80;;;;;;5065613;28;20703;-66
2021/08/13 08:41:29;;;;;;;4.72;2.88;;;25.50;51.80;;;;;;5066470;28;20690;-59
2021/08/13 08:43:55;;;;;;;3.17;2.88;;;25.60;51.90;;;;;;5063224;28;20308;-59
2021/08/13 08:46:23;;;;;;;3.90;3.22;;;25.60;52.00;;;;;;5064268;28;20201;-60
2021/08/13 08:48:50;;;;;;;4.32;3.20;;;25.60;52.10;;;;;;5069640;28;20688;-59
2021/08/13 08:51:16;;;;;;;3.38;3.08;;;25.60;51.90;;;;;;5071670;28;20209;-59
2021/08/13 08:53:43;;;;;;;5.25;3.38;;;25.60;52.20;;;;;;5072276;28;20247;-59
2021/08/13 08:56:09;;;;;;;4.28;2.75;;;25.60;52.00;;;;;;5077015;28;20589;-60
2021/08/13 08:58:35;;;;;;;3.50;3.20;;;25.50;52.00;;;;;;5071384;28;20683;-59
2021/08/13 09:01:02;;;;;;;4.28;2.83;;;25.50;51.90;;;;;;5071384;28;20201;-60
2021/08/13 09:03:28;;;;;;;3.28;2.97;;;25.50;52.00;;;;;;5071552;28;20221;-60
2021/08/13 09:05:55;;;;;;;3.28;2.97;;;25.50;52.00;;;;;;5070977;28;20591;-60
2021/08/13 09:08:21;;;;;;;3.80;2.95;;;25.50;52.00;;;;;;5071057;28;20316;-59
2021/08/13 09:10:48;;;;;;;3.20;2.80;;;25.50;52.00;;;;;;5071376;28;20200;-58
2021/08/13 09:13:14;;;;;;;3.35;3.05;;;25.50;52.00;;;;;;5072943;28;20270;-58
2021/08/13 09:15:41;;;;;;;3.85;2.60;;;25.50;52.00;;;;;;5090545;28;20201;-58
2021/08/13 09:18:07;;;;;;;2.95;2.75;;;25.50;51.90;;;;;;5091475;28;20222;-58
2021/08/13 09:20:33;;;;;;;2.97;2.78;;;25.50;51.90;;;;;;5065973;28;20203;-59
2021/08/13 09:23:00;;;;;;;3.20;2.88;;;25.50;51.80;;;;;;5070876;28;20217;-58
2021/08/13 09:25:26;;;;;;;3.00;2.60;;;25.50;51.80;;;;;;5070967;28;20197;-58
2021/08/13 09:27:54;;;;;;;2.90;2.67;;;25.50;51.80;;;;;;5070646;28;20231;-58
2021/08/13 09:30:20;;;;;;;2.97;2.65;;;25.50;51.90;;;;;;5068487;28;20687;-58
2021/08/13 09:32:48;;;;;;;2.78;2.50;;;25.50;51.70;;;;;;5069757;28;20664;-59
2021/08/13 09:35:15;;;;;;;3.90;3.20;;;25.50;51.80;;;;;;5071160;28;20722;-59
2021/08/13 09:37:42;;;;;;;3.45;2.78;;;25.50;51.80;;;;;;5085627;28;20652;-59
2021/08/13 09:40:08;;;;;;;4.30;2.85;;;25.50;51.90;;;;;;5066605;28;20637;-59
2021/08/13 09:42:35;;;;;;;3.10;2.70;;;25.50;51.90;;;;;;5070849;28;20201;-59
2021/08/13 09:45:01;;;;;;;2.83;2.63;;;25.50;51.80;;;;;;5069759;28;20757;-60
2021/08/13 09:47:28;;;;;;;3.22;2.80;;;25.50;52.00;;;;;;5068520;28;20627;-59
2021/08/13 09:49:54;;;;;;;3.13;2.70;;;25.50;51.90;;;;;;5069886;28;20650;-58
2021/08/13 09:52:21;;;;;;;3.60;3.00;;;25.50;51.90;;;;;;5070232;28;20204;-58
2021/08/13 09:54:47;;;;;;;3.15;2.88;;;25.50;52.00;;;;;;5057881;28;20206;-58
2021/08/13 09:57:14;;;;;;;3.95;3.08;;;25.50;51.90;;;;;;5065574;28;20201;-58
2021/08/13 09:59:40;;;;;;;3.67;2.97;;;25.60;52.20;;;;;;5066831;28;20201;-60
2021/08/13 10:02:07;;;;;;;4.40;3.00;;;25.60;53.60;;;;;;5063595;28;20207;-60
2021/08/13 10:04:33;;;;;;;3.92;3.47;;;25.60;52.70;;;;;;5057750;28;20223;-59
2021/08/13 10:06:59;;;;;;;2.70;2.50;;;25.60;52.30;;;;;;5057970;28;20205;-60
2021/08/13 10:09:26;;;;;;;5.45;3.28;;;25.60;52.50;;;;;;5056542;28;20336;-60
2021/08/13 10:11:53;;;;;;;3.55;3.08;;;25.60;53.60;;;;;;5057922;28;20212;-60
2021/08/13 10:14:19;;;;;;;5.10;3.00;;;25.60;54.30;;;;;;5059051;28;20219;-60
2021/08/13 10:16:45;;;;;;;4.22;2.88;;;25.60;53.40;;;;;;5055826;28;20215;-57
2021/08/13 10:19:12;;;;;;;3.03;2.80;;;25.60;52.60;;;;;;5056515;28;20207;-56
2021/08/13 10:21:38;;;;;;;3.70;2.72;;;25.60;52.50;;;;;;5058238;28;22228;-58
2021/08/13 10:24:05;;;;;;;2.90;2.70;;;25.60;52.70;;;;;;5061812;28;20549;-57
2021/08/13 10:26:31;;;;;;;3.72;3.00;;;25.60;52.50;;;;;;5056275;28;20225;-61
2021/08/13 10:28:58;;;;;;;3.33;3.03;;;25.60;53.20;;;;;;5057896;28;20227;-57
2021/08/13 10:31:24;;;;;;;3.35;2.78;;;25.70;53.40;;;;;;5057536;28;20700;-59
2021/08/13 10:33:52;;;;;;;3.30;3.00;;;25.70;52.90;;;;;;5057110;28;20708;-55
2021/08/13 10:36:19;;;;;;;3.15;2.92;;;25.70;52.80;;;;;;5059014;28;20198;-56
2021/08/13 10:38:45;;;;;;;5.18;3.28;;;25.70;53.10;;;;;;5057094;28;20215;-58
2021/08/13 10:41:11;;;;;;;5.85;3.50;;;25.70;53.30;;;;;;5059854;28;20253;-57
2021/08/13 10:43:38;;;;;;;6.22;4.40;;;25.70;53.60;;;;;;5061976;28;20217;-58
2021/08/13 10:46:04;;;;;;;4.70;4.03;;;25.70;53.60;;;;;;5065020;28;20237;-58
2021/08/13 10:48:31;;;;;;;5.82;3.92;;;25.70;53.70;;;;;;5062579;28;20227;-58
2021/08/13 10:50:57;;;;;;;4.53;4.13;;;25.70;53.70;;;;;;5061945;28;20207;-58
2021/08/13 10:53:24;;;;;;;5.82;3.92;;;25.70;53.70;;;;;;5063267;28;20232;-58
2021/08/13 10:55:53;;;;;;;5.70;4.55;;;25.70;54.10;;;;;;5062577;28;20197;-58
2021/08/13 10:58:20;;;;;;;4.70;4.10;;;25.70;54.20;;;;;;5063374;28;20293;-58
2021/08/13 11:00:46;;;;;;;5.72;4.25;;;25.70;54.10;;;;;;5066563;28;20201;-57
2021/08/13 11:03:13;;;;;;;7.63;4.43;;;25.70;53.70;;;;;;5062086;28;20221;-58
2021/08/13 11:05:39;;;;;;;6.72;4.78;;;25.70;53.70;;;;;;5063163;28;20197;-58
2021/08/13 11:08:06;;;;;;;8.85;6.20;;;25.70;53.60;;;;;;5063956;28;20201;-58
2021/08/13 11:10:33;;;;;;;10.63;6.97;;;25.70;53.70;;;;;;5035530;28;20244;-58
2021/08/13 11:12:59;;;;;;;11.38;6.65;;;25.70;53.70;;;;;;5061877;28;20220;-58
2021/08/13 11:15:26;;;;;;;10.15;5.82;;;25.70;53.70;;;;;;5060984;28;20209;-58
2021/08/13 11:17:52;;;;;;;12.30;6.50;;;25.70;53.80;;;;;;5061429;28;20201;-57
2021/08/13 11:20:20;;;;;;;7.53;5.43;;;25.70;53.70;;;;;;5060588;28;20263;-58
2021/08/13 11:22:47;;;;;;;11.65;6.43;;;25.70;53.70;;;;;;5063828;28;20604;-57
2021/08/13 11:25:13;;;;;;;9.93;6.03;;;25.70;53.60;;;;;;5063207;28;20197;-58
2021/08/13 11:27:40;;;;;;;7.13;4.90;;;25.70;53.70;;;;;;5063744;28;20208;-59
2021/08/13 11:30:06;;;;;;;11.10;5.85;;;25.70;53.90;;;;;;5064945;28;20232;-59
2021/08/13 11:32:33;;;;;;;10.00;4.88;;;25.70;53.70;;;;;;5063665;28;20216;-59
2021/08/13 11:35:01;;;;;;;7.05;4.97;;;25.70;53.70;;;;;;5062549;28;20255;-59
2021/08/13 11:37:27;;;;;;;9.18;5.32;;;25.70;53.70;;;;;;5061291;28;20299;-59
2021/08/13 11:39:54;;;;;;;9.50;4.80;;;25.70;53.70;;;;;;5062685;28;20203;-59
2021/08/13 11:42:20;;;;;;;7.63;4.32;;;25.70;53.60;;;;;;5060836;28;20231;-59
2021/08/13 11:44:47;;;;;;;5.57;4.93;;;25.70;53.20;;;;;;5062264;28;20205;-59
2021/08/13 11:47:13;;;;;;;6.78;4.53;;;25.70;52.90;;;;;;5061294;28;20202;-59
2021/08/13 11:49:40;;;;;;;7.90;4.60;;;25.70;52.80;;;;;;5061182;28;20241;-59
2021/08/13 11:52:06;;;;;;;9.10;5.10;;;25.70;52.60;;;;;;5060676;28;20243;-59
2021/08/13 11:54:35;;;;;;;6.57;4.35;;;25.70;52.40;;;;;;5061744;28;20198;-59
2021/08/13 11:57:01;;;;;;;5.57;3.95;;;25.70;52.20;;;;;;5059058;28;20204;-59
2021/08/13 11:59:28;;;;;;;4.80;3.85;;;25.70;52.10;;;;;;5061356;28;20205;-59
2021/08/13 12:01:54;;;;;;;5.82;4.18;;;25.70;52.00;;;;;;5063878;28;20224;-59
2021/08/13 12:04:21;;;;;;;5.55;4.13;;;25.70;51.80;;;;;;5062578;28;20205;-59
2021/08/13 12:06:47;;;;;;;6.07;3.85;;;25.70;51.50;;;;;;5061591;28;20263;-59
2021/08/13 12:09:14;;;;;;;6.05;3.92;;;25.70;51.00;;;;;;5061304;28;20225;-59
2021/08/13 12:11:40;;;;;;;5.63;3.45;;;25.70;50.80;;;;;;5061168;28;20545;-59
2021/08/13 12:14:07;;;;;;;4.80;3.30;;;25.70;50.20;;;;;;5060037;28;20205;-59
2021/08/13 12:16:33;;;;;;;4.72;4.00;;;25.70;50.40;;;;;;5059630;28;20209;-60
2021/08/13 12:19:00;;;;;;;4.90;3.53;;;25.70;50.20;;;;;;5063304;28;20227;-60
2021/08/13 12:21:27;;;;;;;4.75;3.70;;;25.70;49.80;;;;;;5061593;28;20227;-59
2021/08/13 12:23:53;;;;;;;5.72;3.47;;;25.70;49.90;;;;;;5061915;28;20617;-59
2021/08/13 12:26:20;;;;;;;8.27;3.38;;;25.70;49.60;;;;;;5060808;28;20615;-59
2021/08/13 12:28:46;;;;;;;7.13;3.35;;;25.70;49.90;;;;;;5063119;28;20520;-60
2021/08/13 12:31:12;;;;;;;5.50;3.03;;;25.70;49.20;;;;;;5061621;28;20225;-59
2021/08/13 12:33:39;;;;;;;4.95;3.33;;;25.70;49.70;;;;;;5060968;28;20665;-59
2021/08/13 12:36:05;;;;;;;5.05;3.10;;;25.70;49.80;;;;;;5060647;28;20215;-59
2021/08/13 12:38:32;;;;;;;5.05;3.45;;;25.70;49.90;;;;;;5060956;28;20208;-59
2021/08/13 12:40:59;;;;;;;4.18;2.70;;;25.70;49.70;;;;;;5062979;28;20583;-59